sensor_id;sensor_type;location;lat;lon;timestamp;pressure;altitude;pressure_sealevel;temperature;humidity
19751;BME280;4663;49.120;9.730;2023-01-27T00:00:16;98299.16;;;-4.92;86.53
19751;BME280;4663;49.120;9.730;2023-01-27T00:02:42;98300.19;;;-4.95;86.46
19751;BME280;4663;49.120;9.730;2023-01-27T00:05:09;98300.25;;;-5.14;87.29
19751;BME280;4663;49.120;9.730;2023-01-27T00:07:35;98302.66;;;-5.09;87.34
19751;BME280;4663;49.120;9.730;2023-01-27T00:10:00;98302.38;;;-5.03;87.12
19751;BME280;4663;49.120;9.730;2023-01-27T00:12:26;98294.50;;;-4.87;86.22
19751;BME280;4663;49.120;9.730;2023-01-27T00:15:11;98294.78;;;-4.75;86.45
19751;BME280;4663;49.120;9.730;2023-01-27T00:17:37;98285.78;;;-4.71;85.78
19751;BME280;4663;49.120;9.730;2023-01-27T00:20:04;98290.44;;;-4.76;85.57
19751;BME280;4663;49.120;9.730;2023-01-27T00:22:30;98293.84;;;-4.74;85.43
19751;BME280;4663;49.120;9.730;2023-01-27T00:25:14;98289.59;;;-4.77;86.07
19751;BME280;4663;49.120;9.730;2023-01-27T00:27:40;98302.06;;;-5.32;86.53
19751;BME280;4663;49.120;9.730;2023-01-27T00:30:05;98303.03;;;-4.99;86.95
19751;BME280;4663;49.120;9.730;2023-01-27T00:32:31;98297.19;;;-5.04;86.69
19751;BME280;4663;49.120;9.730;2023-01-27T00:35:16;98297.88;;;-5.18;86.95
19751;BME280;4663;49.120;9.730;2023-01-27T00:37:42;98304.56;;;-5.11;87.68
19751;BME280;4663;49.120;9.730;2023-01-27T00:40:09;98297.00;;;-5.01;86.97
19751;BME280;4663;49.120;9.730;2023-01-27T00:42:35;98300.72;;;-5.05;87.44
19751;BME280;4663;49.120;9.730;2023-01-27T00:45:00;98292.63;;;-5.18;87.10
19751;BME280;4663;49.120;9.730;2023-01-27T00:47:47;98306.25;;;-5.10;87.48
19751;BME280;4663;49.120;9.730;2023-01-27T00:50:12;98302.59;;;-5.25;87.78
19751;BME280;4663;49.120;9.730;2023-01-27T00:52:38;98309.44;;;-5.21;87.93
19751;BME280;4663;49.120;9.730;2023-01-27T00:55:04;98300.44;;;-5.17;87.73
19751;BME280;4663;49.120;9.730;2023-01-27T00:57:30;98300.28;;;-5.31;88.12
19751;BME280;4663;49.120;9.730;2023-01-27T00:59:55;98312.06;;;-5.21;88.25
19751;BME280;4663;49.120;9.730;2023-01-27T01:02:20;98306.63;;;-5.00;87.59
19751;BME280;4663;49.120;9.730;2023-01-27T01:04:46;98314.06;;;-5.09;87.50
19751;BME280;4663;49.120;9.730;2023-01-27T01:07:11;98295.63;;;-5.09;86.58
19751;BME280;4663;49.120;9.730;2023-01-27T01:09:36;98297.09;;;-5.03;86.62
19751;BME280;4663;49.120;9.730;2023-01-27T01:12:02;98297.97;;;-5.20;86.33
19751;BME280;4663;49.120;9.730;2023-01-27T01:14:27;98304.63;;;-5.30;87.58
19751;BME280;4663;49.120;9.730;2023-01-27T01:16:52;98299.19;;;-5.10;87.15
19751;BME280;4663;49.120;9.730;2023-01-27T01:19:20;98310.78;;;-5.49;87.25
19751;BME280;4663;49.120;9.730;2023-01-27T01:21:45;98315.69;;;-5.41;88.48
19751;BME280;4663;49.120;9.730;2023-01-27T01:24:11;98311.50;;;-5.10;87.88
19751;BME280;4663;49.120;9.730;2023-01-27T01:26:36;98321.56;;;-5.36;88.74
19751;BME280;4663;49.120;9.730;2023-01-27T01:29:02;98314.84;;;-5.60;87.81
19751;BME280;4663;49.120;9.730;2023-01-27T01:31:27;98321.03;;;-5.25;87.65
19751;BME280;4663;49.120;9.730;2023-01-27T01:33:52;98319.09;;;-5.22;87.57
19751;BME280;4663;49.120;9.730;2023-01-27T01:36:19;98306.84;;;-5.05;87.27
19751;BME280;4663;49.120;9.730;2023-01-27T01:38:45;98295.84;;;-5.13;87.14
19751;BME280;4663;49.120;9.730;2023-01-27T01:41:14;98298.66;;;-5.16;86.66
19751;BME280;4663;49.120;9.730;2023-01-27T01:43:39;98302.13;;;-5.34;87.68
19751;BME280;4663;49.120;9.730;2023-01-27T01:46:08;98306.16;;;-5.09;86.52
19751;BME280;4663;49.120;9.730;2023-01-27T01:48:40;98292.47;;;-5.51;86.71
19751;BME280;4663;49.120;9.730;2023-01-27T01:56:39;98299.50;;;-5.16;86.66
19751;BME280;4663;49.120;9.730;2023-01-27T01:59:09;98295.31;;;-5.20;86.12
19751;BME280;4663;49.120;9.730;2023-01-27T02:01:36;98295.28;;;-5.02;85.75
19751;BME280;4663;49.120;9.730;2023-01-27T02:04:04;98289.88;;;-4.99;85.67
19751;BME280;4663;49.120;9.730;2023-01-27T02:06:39;98282.13;;;-5.02;85.88
19751;BME280;4663;49.120;9.730;2023-01-27T02:09:06;98278.59;;;-4.85;85.70
19751;BME280;4663;49.120;9.730;2023-01-27T02:11:32;98280.22;;;-4.83;85.32
19751;BME280;4663;49.120;9.730;2023-01-27T02:14:00;98276.13;;;-4.88;85.24
19751;BME280;4663;49.120;9.730;2023-01-27T02:16:26;98272.13;;;-4.96;84.83
19751;BME280;4663;49.120;9.730;2023-01-27T02:18:51;98264.56;;;-4.86;85.11
19751;BME280;4663;49.120;9.730;2023-01-27T02:21:17;98275.00;;;-5.00;84.38
19751;BME280;4663;49.120;9.730;2023-01-27T02:23:59;98263.03;;;-4.90;84.43
19751;BME280;4663;49.120;9.730;2023-01-27T02:26:31;98265.06;;;-4.95;84.73
19751;BME280;4663;49.120;9.730;2023-01-27T02:29:01;98267.56;;;-4.92;84.54
19751;BME280;4663;49.120;9.730;2023-01-27T02:31:27;98266.41;;;-5.04;84.36
19751;BME280;4663;49.120;9.730;2023-01-27T02:33:57;98270.50;;;-4.98;84.64
19751;BME280;4663;49.120;9.730;2023-01-27T02:36:26;98275.53;;;-4.94;84.81
19751;BME280;4663;49.120;9.730;2023-01-27T02:38:54;98270.63;;;-4.84;84.95
19751;BME280;4663;49.120;9.730;2023-01-27T02:41:31;98280.25;;;-5.34;84.90
19751;BME280;4663;49.120;9.730;2023-01-27T02:43:58;98284.84;;;-5.04;85.00
19751;BME280;4663;49.120;9.730;2023-01-27T02:46:24;98287.97;;;-4.79;84.78
19751;BME280;4663;49.120;9.730;2023-01-27T02:48:49;98287.88;;;-5.29;84.75
19751;BME280;4663;49.120;9.730;2023-01-27T02:51:15;98286.41;;;-5.17;85.20
19751;BME280;4663;49.120;9.730;2023-01-27T02:53:41;98283.19;;;-5.23;84.39
19751;BME280;4663;49.120;9.730;2023-01-27T02:56:07;98261.75;;;-4.99;84.22
19751;BME280;4663;49.120;9.730;2023-01-27T02:58:32;98266.91;;;-4.79;83.42
19751;BME280;4663;49.120;9.730;2023-01-27T03:00:58;98264.13;;;-4.94;83.88
19751;BME280;4663;49.120;9.730;2023-01-27T03:03:23;98265.84;;;-4.93;84.49
19751;BME280;4663;49.120;9.730;2023-01-27T03:05:49;98278.31;;;-4.97;84.82
19751;BME280;4663;49.120;9.730;2023-01-27T03:08:16;98278.81;;;-4.72;84.13
19751;BME280;4663;49.120;9.730;2023-01-27T03:10:42;98282.84;;;-4.83;84.17
19751;BME280;4663;49.120;9.730;2023-01-27T03:13:07;98278.97;;;-4.75;83.75
19751;BME280;4663;49.120;9.730;2023-01-27T03:15:33;98282.19;;;-4.86;83.70
19751;BME280;4663;49.120;9.730;2023-01-27T03:18:17;98282.13;;;-4.69;83.51
19751;BME280;4663;49.120;9.730;2023-01-27T03:20:45;98276.03;;;-4.69;83.05
19751;BME280;4663;49.120;9.730;2023-01-27T03:23:12;98272.69;;;-4.73;83.54
19751;BME280;4663;49.120;9.730;2023-01-27T03:25:46;98274.34;;;-5.22;84.33
19751;BME280;4663;49.120;9.730;2023-01-27T03:28:13;98275.66;;;-5.13;84.23
19751;BME280;4663;49.120;9.730;2023-01-27T03:30:39;98270.78;;;-4.87;83.99
19751;BME280;4663;49.120;9.730;2023-01-27T03:33:05;98270.63;;;-4.84;83.63
19751;BME280;4663;49.120;9.730;2023-01-27T03:35:33;98267.41;;;-4.73;82.35
19751;BME280;4663;49.120;9.730;2023-01-27T03:38:06;98273.69;;;-4.75;82.85
19751;BME280;4663;49.120;9.730;2023-01-27T03:40:53;98280.38;;;-4.86;82.93
19751;BME280;4663;49.120;9.730;2023-01-27T03:43:37;98265.00;;;-4.94;83.14
19751;BME280;4663;49.120;9.730;2023-01-27T03:46:20;98272.41;;;-5.36;83.78
19751;BME280;4663;49.120;9.730;2023-01-27T03:48:51;98275.34;;;-5.24;84.17
19751;BME280;4663;49.120;9.730;2023-01-27T03:51:19;98277.56;;;-4.99;83.86
19751;BME280;4663;49.120;9.730;2023-01-27T03:53:45;98273.25;;;-4.84;83.28
19751;BME280;4663;49.120;9.730;2023-01-27T03:56:11;98276.56;;;-4.80;82.91
19751;BME280;4663;49.120;9.730;2023-01-27T03:58:36;98279.28;;;-5.15;82.84
19751;BME280;4663;49.120;9.730;2023-01-27T04:01:22;98284.69;;;-5.01;83.35
19751;BME280;4663;49.120;9.730;2023-01-27T04:03:49;98281.38;;;-5.22;83.33
19751;BME280;4663;49.120;9.730;2023-01-27T04:06:35;98292.50;;;-4.99;83.37
19751;BME280;4663;49.120;9.730;2023-01-27T04:11:45;98302.31;;;-5.37;82.40
19751;BME280;4663;49.120;9.730;2023-01-27T04:14:20;98299.19;;;-5.10;82.76
19751;BME280;4663;49.120;9.730;2023-01-27T04:16:46;98295.28;;;-5.02;82.67
19751;BME280;4663;49.120;9.730;2023-01-27T04:19:12;98297.94;;;-5.02;81.29
19751;BME280;4663;49.120;9.730;2023-01-27T04:21:38;98308.81;;;-5.09;82.07
19751;BME280;4663;49.120;9.730;2023-01-27T04:24:05;98304.66;;;-5.85;83.43
19751;BME280;4663;49.120;9.730;2023-01-27T04:26:42;98307.38;;;-5.69;84.49
19751;BME280;4663;49.120;9.730;2023-01-27T04:29:08;98310.03;;;-5.34;83.23
19751;BME280;4663;49.120;9.730;2023-01-27T04:31:33;98299.06;;;-5.24;83.39
19751;BME280;4663;49.120;9.730;2023-01-27T04:33:59;98303.13;;;-5.36;82.97
19751;BME280;4663;49.120;9.730;2023-01-27T04:36:24;98285.69;;;-5.03;81.42
19751;BME280;4663;49.120;9.730;2023-01-27T04:38:50;98305.06;;;-5.04;80.81
19751;BME280;4663;49.120;9.730;2023-01-27T04:41:15;98306.63;;;-5.36;82.06
19751;BME280;4663;49.120;9.730;2023-01-27T04:43:41;98308.81;;;-5.44;82.30
19751;BME280;4663;49.120;9.730;2023-01-27T04:46:06;98307.94;;;-5.44;82.59
19751;BME280;4663;49.120;9.730;2023-01-27T04:48:31;98297.03;;;-5.37;81.97
19751;BME280;4663;49.120;9.730;2023-01-27T04:50:57;98309.50;;;-5.23;82.07
19751;BME280;4663;49.120;9.730;2023-01-27T04:53:22;98301.16;;;-5.31;82.70
19751;BME280;4663;49.120;9.730;2023-01-27T04:55:48;98315.53;;;-5.56;83.09
19751;BME280;4663;49.120;9.730;2023-01-27T04:58:15;98314.00;;;-5.25;82.66
19751;BME280;4663;49.120;9.730;2023-01-27T05:00:42;98318.56;;;-5.28;82.36
19751;BME280;4663;49.120;9.730;2023-01-27T05:03:08;98313.59;;;-5.52;82.99
19751;BME280;4663;49.120;9.730;2023-01-27T05:05:35;98304.94;;;-5.37;82.66
19751;BME280;4663;49.120;9.730;2023-01-27T05:08:04;98314.69;;;-5.39;82.34
19751;BME280;4663;49.120;9.730;2023-01-27T05:10:30;98319.47;;;-5.29;82.35
19751;BME280;4663;49.120;9.730;2023-01-27T05:12:55;98311.25;;;-5.76;82.11
19751;BME280;4663;49.120;9.730;2023-01-27T05:15:21;98310.59;;;-5.62;82.72
19751;BME280;4663;49.120;9.730;2023-01-27T05:17:46;98305.25;;;-5.43;82.96
19751;BME280;4663;49.120;9.730;2023-01-27T05:20:11;98305.53;;;-5.67;83.43
19751;BME280;4663;49.120;9.730;2023-01-27T05:22:37;98309.56;;;-5.60;83.77
19751;BME280;4663;49.120;9.730;2023-01-27T05:25:02;98308.50;;;-5.55;83.23
19751;BME280;4663;49.120;9.730;2023-01-27T05:27:28;98306.41;;;-5.49;82.67
19751;BME280;4663;49.120;9.730;2023-01-27T05:29:53;98314.50;;;-5.53;82.34
19751;BME280;4663;49.120;9.730;2023-01-27T05:32:18;98323.41;;;-5.56;83.56
19751;BME280;4663;49.120;9.730;2023-01-27T05:34:44;98325.38;;;-5.24;82.45
19751;BME280;4663;49.120;9.730;2023-01-27T05:37:09;98312.28;;;-5.43;82.05
19751;BME280;4663;49.120;9.730;2023-01-27T05:39:35;98322.28;;;-5.33;82.32
19751;BME280;4663;49.120;9.730;2023-01-27T05:42:00;98316.00;;;-5.48;82.43
19751;BME280;4663;49.120;9.730;2023-01-27T05:44:25;98321.91;;;-5.42;82.86
19751;BME280;4663;49.120;9.730;2023-01-27T05:46:50;98323.75;;;-5.27;82.27
19751;BME280;4663;49.120;9.730;2023-01-27T05:49:16;98325.06;;;-5.18;82.42
19751;BME280;4663;49.120;9.730;2023-01-27T05:51:41;98326.00;;;-5.37;82.64
19751;BME280;4663;49.120;9.730;2023-01-27T05:54:07;98318.19;;;-5.38;82.87
19751;BME280;4663;49.120;9.730;2023-01-27T05:56:33;98319.09;;;-5.22;82.32
19751;BME280;4663;49.120;9.730;2023-01-27T05:58:59;98322.03;;;-5.46;82.58
19751;BME280;4663;49.120;9.730;2023-01-27T06:01:27;98324.06;;;-5.88;83.89
19751;BME280;4663;49.120;9.730;2023-01-27T06:03:54;98332.31;;;-5.59;84.14
19751;BME280;4663;49.120;9.730;2023-01-27T06:06:20;98331.03;;;-5.50;84.03
19751;BME280;4663;49.120;9.730;2023-01-27T06:08:47;98340.22;;;-5.59;83.14
19751;BME280;4663;49.120;9.730;2023-01-27T06:11:14;98335.28;;;-5.65;83.42
19751;BME280;4663;49.120;9.730;2023-01-27T06:13:40;98343.50;;;-5.90;84.10
19751;BME280;4663;49.120;9.730;2023-01-27T06:16:08;98346.75;;;-5.67;84.06
19751;BME280;4663;49.120;9.730;2023-01-27T06:18:34;98335.06;;;-5.42;83.49
19751;BME280;4663;49.120;9.730;2023-01-27T06:21:01;98339.78;;;-5.31;83.36
19751;BME280;4663;49.120;9.730;2023-01-27T06:23:27;98335.66;;;-5.37;83.19
19751;BME280;4663;49.120;9.730;2023-01-27T06:25:53;98337.63;;;-5.23;82.24
19751;BME280;4663;49.120;9.730;2023-01-27T06:28:19;98333.59;;;-5.13;82.09
19751;BME280;4663;49.120;9.730;2023-01-27T06:30:45;98346.13;;;-5.18;82.47
19751;BME280;4663;49.120;9.730;2023-01-27T06:33:10;98339.00;;;-5.16;82.00
19751;BME280;4663;49.120;9.730;2023-01-27T06:35:37;98351.41;;;-5.00;82.15
19751;BME280;4663;49.120;9.730;2023-01-27T06:38:05;98346.72;;;-4.95;82.07
19751;BME280;4663;49.120;9.730;2023-01-27T06:40:31;98361.22;;;-5.04;81.98
19751;BME280;4663;49.120;9.730;2023-01-27T06:42:58;98363.78;;;-5.02;81.83
19751;BME280;4663;49.120;9.730;2023-01-27T06:45:23;98359.13;;;-5.15;81.12
19751;BME280;4663;49.120;9.730;2023-01-27T06:47:59;98353.47;;;-4.89;81.01
19751;BME280;4663;49.120;9.730;2023-01-27T06:50:27;98364.88;;;-5.07;80.83
19751;BME280;4663;49.120;9.730;2023-01-27T06:52:58;98367.28;;;-5.02;81.03
19751;BME280;4663;49.120;9.730;2023-01-27T06:55:25;98373.16;;;-5.14;82.43
19751;BME280;4663;49.120;9.730;2023-01-27T06:57:50;98371.69;;;-5.20;81.93
19751;BME280;4663;49.120;9.730;2023-01-27T07:00:16;98380.38;;;-5.00;81.75
19751;BME280;4663;49.120;9.730;2023-01-27T07:02:42;98375.22;;;-5.39;81.36
19751;BME280;4663;49.120;9.730;2023-01-27T07:05:08;98379.28;;;-5.14;81.30
19751;BME280;4663;49.120;9.730;2023-01-27T07:07:34;98381.19;;;-5.00;80.78
19751;BME280;4663;49.120;9.730;2023-01-27T07:09:59;98392.91;;;-5.05;81.09
19751;BME280;4663;49.120;9.730;2023-01-27T07:12:24;98387.81;;;-5.09;80.99
19751;BME280;4663;49.120;9.730;2023-01-27T07:14:50;98397.22;;;-5.22;81.58
19751;BME280;4663;49.120;9.730;2023-01-27T07:17:15;98403.38;;;-5.22;81.89
19751;BME280;4663;49.120;9.730;2023-01-27T07:19:40;98400.34;;;-5.14;81.30
19751;BME280;4663;49.120;9.730;2023-01-27T07:22:06;98397.22;;;-5.40;81.72
19751;BME280;4663;49.120;9.730;2023-01-27T07:24:31;98400.13;;;-5.27;82.08
19751;BME280;4663;49.120;9.730;2023-01-27T07:26:57;98403.03;;;-5.15;81.48
19751;BME280;4663;49.120;9.730;2023-01-27T07:29:22;98396.78;;;-5.13;81.18
19751;BME280;4663;49.120;9.730;2023-01-27T07:31:48;98407.59;;;-5.74;82.43
19751;BME280;4663;49.120;9.730;2023-01-27T07:34:13;98410.25;;;-5.19;82.63
19751;BME280;4663;49.120;9.730;2023-01-27T07:36:38;98408.69;;;-5.23;81.85
19751;BME280;4663;49.120;9.730;2023-01-27T07:39:04;98415.66;;;-5.22;82.08
19751;BME280;4663;49.120;9.730;2023-01-27T07:41:29;98420.94;;;-5.22;82.23
19751;BME280;4663;49.120;9.730;2023-01-27T07:43:55;98429.22;;;-5.12;81.90
19751;BME280;4663;49.120;9.730;2023-01-27T07:46:21;98426.38;;;-5.08;82.13
19751;BME280;4663;49.120;9.730;2023-01-27T07:48:47;98420.97;;;-5.04;81.20
19751;BME280;4663;49.120;9.730;2023-01-27T07:51:13;98420.66;;;-4.98;80.62
19751;BME280;4663;49.120;9.730;2023-01-27T07:53:39;98423.69;;;-5.06;80.48
19751;BME280;4663;49.120;9.730;2023-01-27T07:56:05;98419.88;;;-5.00;80.54
19751;BME280;4663;49.120;9.730;2023-01-27T07:58:39;98420.19;;;-4.89;80.33
19751;BME280;4663;49.120;9.730;2023-01-27T08:01:07;98423.13;;;-5.13;80.39
19751;BME280;4663;49.120;9.730;2023-01-27T08:03:33;98431.91;;;-4.95;80.92
19751;BME280;4663;49.120;9.730;2023-01-27T08:06:03;98424.38;;;-4.85;79.64
19751;BME280;4663;49.120;9.730;2023-01-27T08:08:29;98431.19;;;-4.98;80.06
19751;BME280;4663;49.120;9.730;2023-01-27T08:10:58;98440.97;;;-5.00;80.88
19751;BME280;4663;49.120;9.730;2023-01-27T08:13:23;98438.75;;;-5.10;80.72
19751;BME280;4663;49.120;9.730;2023-01-27T08:15:54;98456.16;;;-5.62;81.75
19751;BME280;4663;49.120;9.730;2023-01-27T08:18:19;98459.59;;;-5.23;81.53
19751;BME280;4663;49.120;9.730;2023-01-27T08:20:45;98459.19;;;-5.33;81.08
19751;BME280;4663;49.120;9.730;2023-01-27T08:23:10;98452.38;;;-5.19;80.48
19751;BME280;4663;49.120;9.730;2023-01-27T08:25:35;98455.81;;;-5.17;81.21
19751;BME280;4663;49.120;9.730;2023-01-27T08:28:01;98438.56;;;-4.87;79.99
19751;BME280;4663;49.120;9.730;2023-01-27T08:30:26;98448.00;;;-5.01;79.99
19751;BME280;4663;49.120;9.730;2023-01-27T08:32:52;98444.59;;;-4.85;79.57
19751;BME280;4663;49.120;9.730;2023-01-27T08:35:17;98443.28;;;-4.94;80.48
19751;BME280;4663;49.120;9.730;2023-01-27T08:37:45;98441.78;;;-5.17;80.80
19751;BME280;4663;49.120;9.730;2023-01-27T08:40:11;98451.53;;;-5.20;82.00
19751;BME280;4663;49.120;9.730;2023-01-27T08:42:36;98448.94;;;-5.02;81.66
19751;BME280;4663;49.120;9.730;2023-01-27T08:45:02;98453.81;;;-5.12;82.47
19751;BME280;4663;49.120;9.730;2023-01-27T08:47:28;98441.78;;;-5.17;82.51
19751;BME280;4663;49.120;9.730;2023-01-27T08:49:54;98445.91;;;-5.12;82.10
19751;BME280;4663;49.120;9.730;2023-01-27T08:52:19;98456.75;;;-4.83;81.75
19751;BME280;4663;49.120;9.730;2023-01-27T08:54:46;98449.22;;;-5.26;82.15
19751;BME280;4663;49.120;9.730;2023-01-27T08:57:11;98452.69;;;-5.25;82.89
19751;BME280;4663;49.120;9.730;2023-01-27T08:59:37;98447.94;;;-4.64;81.61
19751;BME280;4663;49.120;9.730;2023-01-27T09:02:02;98435.06;;;-4.70;80.74
19751;BME280;4663;49.120;9.730;2023-01-27T09:04:27;98446.22;;;-4.65;81.74
19751;BME280;4663;49.120;9.730;2023-01-27T09:06:54;98442.34;;;-4.75;80.67
19751;BME280;4663;49.120;9.730;2023-01-27T09:09:19;98447.47;;;-4.72;81.52
19751;BME280;4663;49.120;9.730;2023-01-27T09:11:44;98434.63;;;-4.45;80.69
19751;BME280;4663;49.120;9.730;2023-01-27T09:14:11;98449.41;;;-4.58;81.52
19751;BME280;4663;49.120;9.730;2023-01-27T09:16:38;98452.66;;;-4.88;81.95
19751;BME280;4663;49.120;9.730;2023-01-27T09:19:03;98456.78;;;-5.20;82.85
19751;BME280;4663;49.120;9.730;2023-01-27T09:21:29;98467.84;;;-4.76;82.30
19751;BME280;4663;49.120;9.730;2023-01-27T09:23:54;98463.91;;;-4.85;81.88
19751;BME280;4663;49.120;9.730;2023-01-27T09:26:20;98468.22;;;-4.66;81.64
19751;BME280;4663;49.120;9.730;2023-01-27T09:28:45;98462.97;;;-4.66;81.89
19751;BME280;4663;49.120;9.730;2023-01-27T09:31:11;98455.13;;;-4.50;81.23
19751;BME280;4663;49.120;9.730;2023-01-27T09:33:36;98455.19;;;-4.51;80.96
19751;BME280;4663;49.120;9.730;2023-01-27T09:38:34;98465.66;;;-5.03;81.97
19751;BME280;4663;49.120;9.730;2023-01-27T09:44:06;98465.84;;;-4.71;82.98
19751;BME280;4663;49.120;9.730;2023-01-27T09:55:02;98472.94;;;-5.08;82.72
19751;BME280;4663;49.120;9.730;2023-01-27T10:16:56;98471.47;;;-4.78;81.66
19751;BME280;4663;49.120;9.730;2023-01-27T10:19:50;98477.69;;;-4.62;81.80
19751;BME280;4663;49.120;9.730;2023-01-27T10:27:55;98466.53;;;-4.67;81.32
19751;BME280;4663;49.120;9.730;2023-01-27T10:33:16;98492.41;;;-4.93;82.95
19751;BME280;4663;49.120;9.730;2023-01-27T10:35:50;98482.09;;;-4.80;82.75
19751;BME280;4663;49.120;9.730;2023-01-27T10:43:17;98478.00;;;-4.68;82.11
19751;BME280;4663;49.120;9.730;2023-01-27T10:46:02;98473.81;;;-4.72;81.39
19751;BME280;4663;49.120;9.730;2023-01-27T10:48:42;98471.03;;;-4.69;81.40
19751;BME280;4663;49.120;9.730;2023-01-27T10:54:06;98462.66;;;-4.60;80.65
19751;BME280;4663;49.120;9.730;2023-01-27T10:56:40;98464.16;;;-4.38;80.49
19751;BME280;4663;49.120;9.730;2023-01-27T11:02:02;98471.25;;;-4.56;80.37
19751;BME280;4663;49.120;9.730;2023-01-27T11:07:05;98465.31;;;-4.77;80.54
19751;BME280;4663;49.120;9.730;2023-01-27T11:09:43;98478.31;;;-4.57;80.70
19751;BME280;4663;49.120;9.730;2023-01-27T11:12:13;98477.00;;;-4.83;81.09
19751;BME280;4663;49.120;9.730;2023-01-27T11:14:50;98479.19;;;-5.11;81.19
19751;BME280;4663;49.120;9.730;2023-01-27T11:17:43;98489.44;;;-5.04;82.21
19751;BME280;4663;49.120;9.730;2023-01-27T11:20:25;98491.34;;;-5.26;81.90
19751;BME280;4663;49.120;9.730;2023-01-27T11:23:00;98476.44;;;-4.90;81.54
19751;BME280;4663;49.120;9.730;2023-01-27T11:28:36;98479.94;;;-4.72;82.01
19751;BME280;4663;49.120;9.730;2023-01-27T11:31:18;98478.91;;;-5.04;81.34
19751;BME280;4663;49.120;9.730;2023-01-27T11:33:53;98483.22;;;-5.21;81.78
19751;BME280;4663;49.120;9.730;2023-01-27T11:36:24;98482.97;;;-4.79;81.90
19751;BME280;4663;49.120;9.730;2023-01-27T11:38:51;98476.06;;;-4.82;81.34
19751;BME280;4663;49.120;9.730;2023-01-27T11:41:17;98459.84;;;-4.74;81.09
19751;BME280;4663;49.120;9.730;2023-01-27T11:43:42;98460.47;;;-4.51;80.78
19751;BME280;4663;49.120;9.730;2023-01-27T11:46:13;98458.94;;;-4.91;80.85
19751;BME280;4663;49.120;9.730;2023-01-27T11:48:43;98448.88;;;-4.65;79.83
19751;BME280;4663;49.120;9.730;2023-01-27T11:51:25;98463.56;;;-4.43;80.15
19751;BME280;4663;49.120;9.730;2023-01-27T11:54:05;98455.34;;;-4.55;80.58
19751;BME280;4663;49.120;9.730;2023-01-27T11:56:33;98453.03;;;-4.78;80.51
19751;BME280;4663;49.120;9.730;2023-01-27T12:04:16;98450.88;;;-4.70;79.85
19751;BME280;4663;49.120;9.730;2023-01-27T12:06:50;98452.31;;;-5.00;80.29
19751;BME280;4663;49.120;9.730;2023-01-27T12:09:38;98449.47;;;-4.60;80.22
19751;BME280;4663;49.120;9.730;2023-01-27T12:14:41;98448.47;;;-4.75;80.15
19751;BME280;4663;49.120;9.730;2023-01-27T12:17:18;98451.97;;;-4.92;81.15
19751;BME280;4663;49.120;9.730;2023-01-27T12:19:47;98435.38;;;-4.76;80.90
19751;BME280;4663;49.120;9.730;2023-01-27T12:22:25;98439.38;;;-5.22;80.94
19751;BME280;4663;49.120;9.730;2023-01-27T12:24:55;98434.53;;;-4.59;80.08
19751;BME280;4663;49.120;9.730;2023-01-27T12:27:24;98428.69;;;-4.48;80.00
19751;BME280;4663;49.120;9.730;2023-01-27T12:29:54;98432.13;;;-4.30;80.03
19751;BME280;4663;49.120;9.730;2023-01-27T12:32:40;98425.25;;;-4.33;79.51
19751;BME280;4663;49.120;9.730;2023-01-27T12:37:46;98422.63;;;-4.33;78.30
19751;BME280;4663;49.120;9.730;2023-01-27T12:40:19;98428.47;;;-4.10;78.32
19751;BME280;4663;49.120;9.730;2023-01-27T12:43:01;98433.09;;;-4.49;79.16
19751;BME280;4663;49.120;9.730;2023-01-27T12:45:29;98434.63;;;-4.45;79.28
19751;BME280;4663;49.120;9.730;2023-01-27T12:50:30;98447.28;;;-4.51;79.95
19751;BME280;4663;49.120;9.730;2023-01-27T12:53:15;98429.75;;;-4.35;79.04
19751;BME280;4663;49.120;9.730;2023-01-27T12:55:42;98434.16;;;-4.69;79.69
19751;BME280;4663;49.120;9.730;2023-01-27T12:58:32;98428.28;;;-4.40;79.34
19751;BME280;4663;49.120;9.730;2023-01-27T13:01:04;98425.53;;;-4.55;79.32
19751;BME280;4663;49.120;9.730;2023-01-27T13:03:31;98422.81;;;-4.71;80.19
19751;BME280;4663;49.120;9.730;2023-01-27T13:06:01;98431.31;;;-4.66;80.00
19751;BME280;4663;49.120;9.730;2023-01-27T13:08:30;98424.47;;;-4.35;79.51
19751;BME280;4663;49.120;9.730;2023-01-27T13:10:58;98421.75;;;-4.85;80.00
19751;BME280;4663;49.120;9.730;2023-01-27T13:13:29;98415.88;;;-4.56;79.61
19751;BME280;4663;49.120;9.730;2023-01-27T13:18:24;98432.50;;;-4.72;80.06
19751;BME280;4663;49.120;9.730;2023-01-27T13:20:56;98426.44;;;-4.56;79.95
19751;BME280;4663;49.120;9.730;2023-01-27T13:23:29;98423.56;;;-4.34;79.32
19751;BME280;4663;49.120;9.730;2023-01-27T13:28:38;98426.28;;;-3.69;77.72
19751;BME280;4663;49.120;9.730;2023-01-27T13:31:11;98428.47;;;-3.94;77.79
19751;BME280;4663;49.120;9.730;2023-01-27T13:33:46;98433.19;;;-4.50;78.14
19751;BME280;4663;49.120;9.730;2023-01-27T13:39:24;98444.09;;;-4.40;79.28
19751;BME280;4663;49.120;9.730;2023-01-27T13:44:44;98445.16;;;-3.93;78.35
19751;BME280;4663;49.120;9.730;2023-01-27T13:47:22;98432.38;;;-4.35;78.75
19751;BME280;4663;49.120;9.730;2023-01-27T13:49:53;98447.16;;;-4.14;78.34
19751;BME280;4663;49.120;9.730;2023-01-27T13:52:21;98459.38;;;-4.47;79.36
19751;BME280;4663;49.120;9.730;2023-01-27T13:54:47;98457.28;;;-4.07;78.77
19751;BME280;4663;49.120;9.730;2023-01-27T13:57:36;98454.66;;;-4.07;79.05
19751;BME280;4663;49.120;9.730;2023-01-27T14:00:20;98457.50;;;-4.27;78.67
19751;BME280;4663;49.120;9.730;2023-01-27T14:11:37;98475.75;;;-4.07;79.29
19751;BME280;4663;49.120;9.730;2023-01-27T14:25:03;98461.50;;;-3.70;78.56
19751;BME280;4663;49.120;9.730;2023-01-27T14:30:40;98469.28;;;-4.17;79.17
19751;BME280;4663;49.120;9.730;2023-01-27T14:41:33;98472.22;;;-3.89;78.70
19751;BME280;4663;49.120;9.730;2023-01-27T14:44:07;98479.25;;;-4.06;79.38
19751;BME280;4663;49.120;9.730;2023-01-27T14:47:10;98475.56;;;-4.20;78.93
19751;BME280;4663;49.120;9.730;2023-01-27T14:52:32;98457.94;;;-3.85;78.64
19751;BME280;4663;49.120;9.730;2023-01-27T14:57:55;98457.00;;;-4.18;78.96
19751;BME280;4663;49.120;9.730;2023-01-27T15:03:57;98449.78;;;-3.81;78.52
19751;BME280;4663;49.120;9.730;2023-01-27T15:25:54;98461.03;;;-4.11;78.77
19751;BME280;4663;49.120;9.730;2023-01-27T15:28:27;98467.75;;;-4.05;78.95
19751;BME280;4663;49.120;9.730;2023-01-27T15:36:36;98473.81;;;-3.37;77.30
19751;BME280;4663;49.120;9.730;2023-01-27T15:41:35;98461.38;;;-3.51;76.79
19751;BME280;4663;49.120;9.730;2023-01-27T15:46:43;98473.88;;;-3.71;78.07
19751;BME280;4663;49.120;9.730;2023-01-27T15:49:17;98485.38;;;-3.56;78.06
19751;BME280;4663;49.120;9.730;2023-01-27T15:51:45;98480.59;;;-3.49;77.16
19751;BME280;4663;49.120;9.730;2023-01-27T15:54:19;98481.88;;;-3.56;77.79
19751;BME280;4663;49.120;9.730;2023-01-27T15:56:49;98482.81;;;-3.57;77.29
19751;BME280;4663;49.120;9.730;2023-01-27T15:59:21;98492.88;;;-3.32;76.78